createdAt,value
2018-12-13T00:00:39.660Z,5.27
2018-12-13T00:01:39.791Z,5.32
2018-12-13T00:02:39.927Z,5.32
2018-12-13T00:03:40.062Z,5.22
2018-12-13T00:04:41.158Z,5.24
2018-12-13T00:05:40.295Z,5.34
2018-12-13T00:06:40.427Z,5.36
2018-12-13T00:07:40.562Z,5.37
2018-12-13T00:10:12.761Z,5.50
2018-12-13T00:11:12.892Z,5.41
2018-12-13T00:12:13.024Z,5.50
2018-12-13T00:13:13.172Z,5.55
2018-12-13T00:14:13.509Z,5.57
2018-12-13T00:15:13.400Z,5.57
2018-12-13T00:16:13.530Z,5.50
2018-12-13T00:17:13.657Z,5.44
2018-12-13T00:18:13.782Z,5.57
2018-12-13T00:19:13.908Z,5.52
2018-12-13T00:20:14.034Z,5.41
2018-12-13T00:21:14.165Z,5.44
2018-12-13T00:22:14.294Z,5.62
2018-12-13T00:23:14.428Z,5.50
2018-12-13T00:24:14.555Z,5.54
2018-12-13T00:25:14.714Z,5.54
2018-12-13T00:26:35.822Z,5.48
2018-12-13T00:27:14.953Z,5.47
2018-12-13T00:28:15.085Z,5.40
2018-12-13T00:29:15.231Z,5.36
2018-12-13T00:30:22.056Z,5.47
2018-12-13T00:31:15.434Z,5.52
2018-12-13T00:32:15.565Z,5.51
2018-12-13T00:33:15.690Z,5.44
2018-12-13T00:34:15.825Z,5.52
2018-12-13T00:35:15.948Z,5.40
2018-12-13T00:36:16.075Z,5.36
2018-12-13T00:37:16.209Z,5.44
2018-12-13T00:38:16.334Z,5.43
2018-12-13T00:39:16.460Z,5.33
2018-12-13T00:40:16.585Z,5.37
2018-12-13T00:41:16.713Z,5.14
2018-12-13T00:42:16.838Z,5.01
2018-12-13T00:43:16.968Z,4.97
2018-12-13T00:44:17.102Z,4.91
2018-12-13T00:45:17.228Z,4.85
2018-12-13T00:46:17.356Z,4.88
2018-12-13T00:47:17.487Z,4.83
2018-12-13T00:48:17.666Z,4.96
2018-12-13T00:49:17.743Z,4.97
2018-12-13T00:50:17.874Z,5.03
2018-12-13T00:51:18.002Z,5.18
2018-12-13T00:52:18.130Z,5.15
2018-12-13T00:53:18.250Z,5.27
2018-12-13T00:54:18.385Z,5.21
2018-12-13T00:55:18.512Z,5.34
2018-12-13T00:56:18.642Z,5.19
2018-12-13T00:57:18.770Z,5.14
2018-12-13T00:58:18.898Z,5.16
2018-12-13T00:59:19.031Z,5.25
2018-12-13T01:00:19.159Z,5.22
2018-12-13T01:01:19.317Z,5.29
2018-12-13T01:02:19.443Z,5.33
2018-12-13T01:03:19.575Z,5.29
2018-12-13T01:04:19.705Z,5.29
2018-12-13T01:05:19.836Z,5.34
2018-12-13T01:06:19.964Z,5.39
2018-12-13T01:07:20.092Z,5.37
2018-12-13T01:08:20.222Z,5.40
2018-12-13T01:09:20.358Z,5.36
2018-12-13T01:10:20.487Z,5.39
2018-12-13T01:11:20.620Z,5.41
2018-12-13T01:12:20.753Z,5.32
2018-12-13T01:13:20.888Z,5.21
2018-12-13T01:14:21.013Z,5.14
2018-12-13T01:15:21.139Z,4.98
2018-12-13T01:16:21.271Z,5.07
2018-12-13T01:17:21.397Z,5.09
2018-12-13T01:18:21.529Z,5.27
2018-12-13T01:19:21.655Z,5.14
2018-12-13T01:20:21.787Z,5.15
2018-12-13T01:21:21.934Z,5.07
2018-12-13T01:22:22.048Z,4.94
2018-12-13T01:23:22.172Z,4.94
2018-12-13T01:24:22.301Z,4.77
2018-12-13T01:25:22.432Z,4.75
2018-12-13T01:26:22.563Z,4.79
2018-12-13T01:27:22.728Z,4.86
2018-12-13T01:28:22.874Z,4.89
2018-12-13T01:29:23.000Z,4.79
2018-12-13T01:30:23.130Z,4.79
2018-12-13T01:31:23.254Z,4.88
2018-12-13T01:32:23.388Z,4.82
2018-12-13T01:33:23.509Z,4.93
2018-12-13T01:34:23.650Z,4.79
2018-12-13T01:35:23.774Z,4.82
2018-12-13T01:36:23.910Z,4.86
2018-12-13T01:37:24.037Z,4.77
2018-12-13T01:38:24.169Z,4.74
2018-12-13T01:39:24.303Z,4.66
2018-12-13T01:40:24.415Z,4.69
2018-12-13T01:41:24.543Z,4.63
2018-12-13T01:42:24.668Z,4.57
2018-12-13T01:43:24.796Z,4.43
2018-12-13T01:44:24.934Z,4.26
2018-12-13T01:45:25.072Z,4.23
2018-12-13T01:46:25.197Z,4.28
2018-12-13T01:47:25.406Z,4.26
2018-12-13T01:48:25.407Z,4.35
2018-12-13T01:49:25.535Z,4.35
2018-12-13T01:50:25.681Z,4.31
2018-12-13T01:51:25.803Z,4.45
2018-12-13T01:52:25.937Z,4.43
2018-12-13T01:53:26.065Z,4.49
2018-12-13T01:54:26.192Z,4.54
2018-12-13T01:55:26.320Z,4.51
2018-12-13T01:56:26.447Z,4.39
2018-12-13T01:57:26.577Z,4.38
2018-12-13T01:58:26.712Z,4.57
2018-12-13T01:59:26.843Z,4.63
2018-12-13T02:00:26.970Z,4.60
2018-12-13T02:01:27.139Z,4.48
2018-12-13T02:02:27.269Z,4.54
2018-12-13T02:03:27.404Z,4.53
2018-12-13T02:04:27.533Z,4.60
2018-12-13T02:05:27.663Z,4.56
2018-12-13T02:06:27.796Z,4.38
2018-12-13T02:07:27.917Z,4.28
2018-12-13T02:08:28.047Z,4.21
2018-12-13T02:09:28.195Z,4.18
2018-12-13T02:10:28.311Z,4.23
2018-12-13T02:11:28.440Z,4.34
2018-12-13T02:12:28.583Z,4.09
2018-12-13T02:13:28.715Z,4.13
2018-12-13T02:14:28.845Z,4.16
2018-12-13T02:15:28.973Z,4.13
2018-12-13T02:16:29.101Z,4.20
2018-12-13T02:17:29.232Z,4.20
2018-12-13T02:18:29.360Z,4.27
2018-12-13T02:19:29.490Z,4.41
2018-12-13T02:20:29.615Z,4.31
2018-12-13T02:21:29.751Z,4.48
2018-12-13T02:22:29.882Z,4.48
2018-12-13T02:23:30.011Z,4.43
2018-12-13T02:24:30.206Z,4.54
2018-12-13T02:25:30.268Z,4.59
2018-12-13T02:26:30.394Z,4.41
2018-12-13T02:27:30.531Z,4.48
2018-12-13T02:28:30.662Z,4.54
2018-12-13T02:29:30.793Z,4.49
2018-12-13T02:30:30.919Z,4.46
2018-12-13T02:31:31.050Z,4.57
2018-12-13T02:32:31.182Z,4.41
2018-12-13T02:33:31.311Z,4.43
2018-12-13T02:34:31.445Z,4.46
2018-12-13T02:35:31.573Z,4.56
2018-12-13T02:36:31.702Z,4.54
2018-12-13T02:37:31.835Z,4.56
2018-12-13T02:38:31.958Z,4.63
2018-12-13T02:39:32.082Z,4.60
2018-12-13T02:40:32.211Z,4.51
2018-12-13T02:41:32.336Z,4.51
2018-12-13T02:42:32.465Z,4.64
2018-12-13T02:43:32.598Z,4.61
2018-12-13T02:44:32.748Z,4.53
2018-12-13T02:45:32.950Z,4.63
2018-12-13T02:46:33.025Z,4.51
2018-12-13T02:47:33.160Z,4.57
2018-12-13T02:48:33.283Z,4.64
2018-12-13T02:49:33.415Z,4.49
2018-12-13T02:50:33.548Z,4.51
2018-12-13T02:51:33.676Z,4.45
2018-12-13T02:52:33.801Z,4.45
2018-12-13T02:53:33.929Z,4.49
2018-12-13T02:54:34.060Z,4.48
2018-12-13T02:55:34.189Z,4.49
2018-12-13T02:56:34.321Z,4.48
2018-12-13T02:57:34.454Z,4.48
2018-12-13T02:58:34.583Z,4.42
2018-12-13T02:59:34.714Z,4.38
2018-12-13T03:00:34.852Z,4.48
2018-12-13T03:01:34.961Z,4.39
2018-12-13T03:02:35.113Z,4.39
2018-12-13T03:03:35.236Z,4.28
2018-12-13T03:04:35.402Z,4.36
2018-12-13T03:05:35.542Z,4.30
2018-12-13T03:06:35.671Z,4.10
2018-12-13T03:07:35.795Z,4.00
2018-12-13T03:08:35.933Z,3.99
2018-12-13T03:09:36.064Z,3.87
2018-12-13T03:10:36.192Z,3.88
2018-12-13T03:11:36.327Z,3.88
2018-12-13T03:12:36.461Z,3.67
2018-12-13T03:13:36.592Z,3.74
2018-12-13T03:14:36.719Z,3.78
2018-12-13T03:15:36.849Z,3.84
2018-12-13T03:16:36.976Z,3.96
2018-12-13T03:17:37.107Z,3.98
2018-12-13T03:18:37.236Z,4.06
2018-12-13T03:19:37.361Z,4.10
2018-12-13T03:20:37.491Z,4.03
2018-12-13T03:21:37.626Z,4.12
2018-12-13T03:22:37.749Z,4.18
2018-12-13T03:23:37.885Z,4.13
2018-12-13T03:24:38.014Z,4.28
2018-12-13T03:25:38.152Z,4.28
2018-12-13T03:26:38.274Z,4.30
2018-12-13T03:27:38.403Z,4.30
2018-12-13T03:28:38.529Z,4.35
2018-12-13T03:29:38.655Z,4.28
2018-12-13T03:30:38.786Z,4.30
2018-12-13T03:31:38.915Z,4.34
2018-12-13T03:32:39.060Z,4.27
2018-12-13T03:33:39.166Z,4.36
2018-12-13T03:34:39.290Z,4.30
2018-12-13T03:35:39.415Z,4.35
2018-12-13T03:36:39.552Z,4.27
2018-12-13T03:37:39.677Z,4.34
2018-12-13T03:38:39.810Z,4.34
2018-12-13T03:39:39.996Z,4.26
2018-12-13T03:40:40.067Z,4.26
2018-12-13T03:41:40.194Z,4.20
2018-12-13T03:42:40.328Z,4.21
2018-12-13T03:43:40.458Z,4.12
2018-12-13T03:44:40.585Z,4.00
2018-12-13T03:45:40.715Z,4.10
2018-12-13T03:46:40.840Z,4.10
2018-12-13T03:47:40.967Z,4.20
2018-12-13T03:48:41.099Z,4.09
2018-12-13T03:49:41.225Z,4.09
2018-12-13T03:50:41.359Z,4.05
2018-12-13T03:51:41.490Z,4.08
2018-12-13T03:52:41.621Z,4.13
2018-12-13T03:53:41.750Z,4.06
2018-12-13T03:54:41.882Z,4.08
2018-12-13T03:55:41.999Z,4.08
2018-12-13T03:56:42.127Z,4.00
2018-12-13T03:57:42.258Z,4.05
2018-12-13T03:58:42.383Z,3.92
2018-12-13T03:59:42.516Z,3.91
2018-12-13T04:00:42.638Z,4.02
2018-12-13T04:01:42.809Z,4.09
2018-12-13T04:02:42.954Z,4.02
2018-12-13T04:03:43.079Z,4.00
2018-12-13T04:04:43.219Z,3.94
2018-12-13T04:05:43.336Z,3.87
2018-12-13T04:06:43.472Z,3.90
2018-12-13T04:07:43.590Z,3.85
2018-12-13T04:08:43.724Z,3.82
2018-12-13T04:09:43.853Z,3.85
2018-12-13T04:10:43.983Z,3.66
2018-12-13T04:11:44.112Z,3.67
2018-12-13T04:12:44.236Z,3.67
2018-12-13T04:13:44.365Z,3.72
2018-12-13T04:14:44.488Z,3.69
2018-12-13T04:15:44.617Z,3.78
2018-12-13T04:16:44.747Z,3.73
2018-12-13T04:17:44.875Z,3.70
2018-12-13T04:18:45.009Z,3.84
2018-12-13T04:19:45.139Z,3.80
2018-12-13T04:20:45.265Z,3.74
2018-12-13T04:21:45.425Z,3.69
2018-12-13T04:24:17.694Z,3.55
2018-12-13T04:25:17.742Z,3.56
2018-12-13T04:26:17.866Z,3.49
2018-12-13T04:27:17.993Z,3.51
2018-12-13T04:28:18.120Z,3.45
2018-12-13T04:29:18.284Z,3.44
2018-12-13T04:30:25.170Z,3.60
2018-12-13T04:31:18.549Z,3.33
2018-12-13T04:32:18.675Z,3.45
2018-12-13T04:33:18.820Z,3.30
2018-12-13T04:34:18.954Z,3.48
2018-12-13T04:35:19.073Z,3.54
2018-12-13T04:36:19.201Z,3.46
2018-12-13T04:37:19.358Z,3.64
2018-12-13T04:38:19.473Z,3.62
2018-12-13T04:39:19.602Z,3.72
2018-12-13T04:40:19.727Z,3.64
2018-12-13T04:41:19.881Z,3.74
2018-12-13T04:42:20.010Z,3.78
2018-12-13T04:43:20.137Z,3.78
2018-12-13T04:44:20.256Z,3.80
2018-12-13T04:45:20.408Z,3.82
2018-12-13T04:46:20.534Z,3.82
2018-12-13T04:47:20.661Z,3.84
2018-12-13T04:48:20.819Z,3.84
2018-12-13T04:49:21.019Z,3.90
2018-12-13T04:50:21.019Z,3.88
2018-12-13T04:51:21.146Z,3.84
2018-12-13T04:52:21.291Z,3.81
2018-12-13T04:53:21.448Z,3.78
2018-12-13T04:54:21.590Z,3.84
2018-12-13T04:55:21.720Z,3.81
2018-12-13T04:56:21.853Z,3.90
2018-12-13T04:57:21.989Z,3.70
2018-12-13T04:58:22.119Z,3.67
2018-12-13T04:59:22.250Z,3.63
2018-12-13T05:00:22.396Z,3.73
2018-12-13T05:01:22.516Z,3.66
2018-12-13T05:02:22.654Z,3.70
2018-12-13T05:03:22.777Z,3.69
2018-12-13T05:04:22.927Z,3.67
2018-12-13T05:06:55.790Z,3.84
2018-12-13T05:07:55.915Z,3.85
2018-12-13T05:08:56.042Z,4.00
2018-12-13T05:09:56.182Z,3.90
2018-12-13T05:10:56.330Z,3.90
2018-12-13T05:11:56.430Z,3.88
2018-12-13T05:12:56.566Z,3.72
2018-12-13T05:13:56.724Z,3.76
2018-12-13T05:15:12.253Z,3.64
2018-12-13T05:15:57.004Z,3.63
2018-12-13T05:16:57.125Z,3.59
2018-12-13T05:17:57.316Z,3.44
2018-12-13T05:18:57.656Z,3.33
2018-12-13T05:19:57.413Z,3.35
2018-12-13T05:20:57.533Z,3.36
2018-12-13T05:21:57.683Z,3.41
2018-12-13T05:23:23.517Z,3.49
2018-12-13T05:23:57.894Z,3.46
2018-12-13T05:24:58.020Z,3.55
2018-12-13T05:25:58.153Z,3.56
2018-12-13T05:26:58.277Z,3.64
2018-12-13T05:27:58.409Z,3.66
2018-12-13T05:28:58.540Z,3.48
2018-12-13T05:29:58.665Z,3.64
2018-12-13T05:30:58.796Z,3.69
2018-12-13T05:31:58.924Z,3.82
2018-12-13T05:32:59.049Z,3.73
2018-12-13T05:33:59.179Z,3.70
2018-12-13T05:34:59.310Z,3.69
2018-12-13T05:35:59.435Z,3.66
2018-12-13T05:36:59.563Z,3.72
2018-12-13T05:37:59.693Z,3.73
2018-12-13T05:38:59.821Z,3.78
2018-12-13T05:39:59.947Z,3.72
2018-12-13T05:41:00.074Z,3.85
2018-12-13T05:42:00.204Z,3.80
2018-12-13T05:43:00.334Z,3.74
2018-12-13T05:44:00.456Z,3.73
2018-12-13T05:45:00.587Z,3.51
2018-12-13T05:46:00.718Z,3.56
2018-12-13T05:47:00.840Z,3.67
2018-12-13T05:48:00.977Z,3.56
2018-12-13T05:49:01.105Z,3.56
2018-12-13T05:50:01.230Z,3.62
2018-12-13T05:51:01.361Z,3.67
2018-12-13T05:52:01.495Z,3.67
2018-12-13T05:53:01.623Z,3.66
2018-12-13T05:54:01.741Z,3.69
2018-12-13T05:55:01.874Z,3.70
2018-12-13T05:56:02.004Z,3.80
2018-12-13T05:57:02.137Z,3.60
2018-12-13T05:58:02.278Z,3.60
2018-12-13T05:59:02.397Z,3.62
2018-12-13T06:00:02.525Z,3.72
2018-12-13T06:01:02.657Z,3.76
2018-12-13T06:02:02.783Z,3.70
2018-12-13T06:03:02.915Z,3.76
2018-12-13T06:04:03.042Z,3.69
2018-12-13T06:05:03.166Z,3.64
2018-12-13T06:06:03.296Z,3.48
2018-12-13T06:07:03.427Z,3.62
2018-12-13T06:08:03.556Z,3.62
2018-12-13T06:09:03.683Z,3.64
2018-12-13T06:10:03.811Z,3.64
2018-12-13T06:11:03.943Z,3.78
2018-12-13T06:12:04.076Z,3.82
2018-12-13T06:13:04.200Z,3.82
2018-12-13T06:14:04.325Z,3.87
2018-12-13T06:15:04.447Z,3.87
2018-12-13T06:16:04.574Z,3.87
2018-12-13T06:17:04.702Z,4.00
2018-12-13T06:18:06.974Z,3.88
2018-12-13T06:19:04.961Z,3.74
2018-12-13T06:20:05.095Z,3.76
2018-12-13T06:21:11.630Z,3.76
2018-12-13T06:22:05.352Z,3.73
2018-12-13T06:23:05.511Z,3.70
2018-12-13T06:25:38.088Z,3.69
2018-12-13T06:26:38.218Z,3.63
2018-12-13T06:27:38.339Z,3.72
2018-12-13T06:28:38.478Z,3.72
2018-12-13T06:29:59.589Z,3.85
2018-12-13T06:30:38.718Z,3.72
2018-12-13T06:31:38.847Z,3.88
2018-12-13T06:32:38.983Z,3.67
2018-12-13T06:33:39.102Z,3.63
2018-12-13T06:34:39.236Z,3.67
2018-12-13T06:35:39.388Z,3.64
2018-12-13T06:36:42.640Z,3.64
2018-12-13T06:37:39.636Z,3.69
2018-12-13T06:38:39.761Z,3.72
2018-12-13T06:39:39.894Z,3.66
2018-12-13T06:40:40.031Z,3.54
2018-12-13T06:41:40.172Z,3.55
2018-12-13T06:42:40.299Z,3.37
2018-12-13T06:43:40.424Z,3.23
2018-12-13T06:44:40.553Z,3.23
2018-12-13T06:45:40.681Z,3.18
2018-12-13T06:46:40.807Z,3.12
2018-12-13T06:47:40.936Z,3.11
2018-12-13T06:48:41.073Z,3.20
2018-12-13T06:49:41.241Z,3.17
2018-12-13T06:50:41.260Z,3.17
2018-12-13T06:51:41.384Z,3.08
2018-12-13T06:52:41.515Z,3.08
2018-12-13T06:53:41.642Z,2.99
2018-12-13T06:54:41.766Z,3.09
2018-12-13T06:55:41.952Z,3.00
2018-12-13T06:56:42.020Z,2.97
2018-12-13T06:57:42.146Z,2.86
2018-12-13T06:58:42.275Z,2.89
2018-12-13T06:59:42.407Z,2.87
2018-12-13T07:00:42.534Z,2.78
2018-12-13T07:01:42.668Z,2.75
2018-12-13T07:02:42.796Z,2.69
2018-12-13T07:03:43.806Z,2.91
2018-12-13T07:04:43.081Z,2.79
2018-12-13T07:05:43.210Z,2.69
2018-12-13T07:06:43.332Z,2.73
2018-12-13T07:07:43.457Z,2.65
2018-12-13T07:08:43.586Z,2.66
2018-12-13T07:09:43.711Z,2.57
2018-12-13T07:10:43.836Z,2.53
2018-12-13T07:11:43.975Z,2.53
2018-12-13T07:12:44.110Z,2.61
2018-12-13T07:13:44.238Z,2.66
2018-12-13T07:14:44.364Z,2.54
2018-12-13T07:15:44.497Z,2.57
2018-12-13T07:16:44.621Z,2.54
2018-12-13T07:17:44.752Z,2.53
2018-12-13T07:18:44.878Z,2.69
2018-12-13T07:19:44.999Z,2.79
2018-12-13T07:20:45.794Z,2.90
2018-12-13T07:21:45.211Z,3.00
2018-12-13T07:22:45.336Z,3.04
2018-12-13T07:23:45.460Z,3.07
2018-12-13T07:24:45.590Z,2.97
2018-12-13T07:25:45.716Z,3.07
2018-12-13T07:26:45.842Z,3.12
2018-12-13T07:27:45.970Z,3.12
2018-12-13T07:28:46.094Z,3.25
2018-12-13T07:29:46.223Z,3.09
2018-12-13T07:30:46.350Z,3.18
2018-12-13T07:31:46.481Z,3.00
2018-12-13T07:32:46.611Z,3.00
2018-12-13T07:33:46.836Z,2.91
2018-12-13T07:34:46.876Z,2.94
2018-12-13T07:35:47.005Z,2.90
2018-12-13T07:36:47.132Z,2.99
2018-12-13T07:37:47.268Z,3.02
2018-12-13T07:38:47.389Z,3.00
2018-12-13T07:39:47.519Z,3.12
2018-12-13T07:40:47.646Z,3.15
2018-12-13T07:41:47.796Z,3.09
2018-12-13T07:42:47.926Z,3.11
2018-12-13T07:43:48.059Z,3.08
2018-12-13T07:44:48.186Z,3.23
2018-12-13T07:45:48.307Z,3.22
2018-12-13T07:46:48.445Z,3.20
2018-12-13T07:47:48.569Z,3.08
2018-12-13T07:48:48.698Z,3.04
2018-12-13T07:49:48.826Z,3.07
2018-12-13T07:50:48.955Z,3.17
2018-12-13T07:51:49.103Z,3.12
2018-12-13T07:52:49.241Z,3.30
2018-12-13T07:53:49.368Z,3.27
2018-12-13T07:54:49.512Z,3.20
2018-12-13T07:55:49.649Z,3.04
2018-12-13T07:56:49.990Z,3.18
2018-12-13T07:57:49.870Z,3.15
2018-12-13T07:58:49.993Z,3.14
2018-12-13T07:59:50.122Z,3.12
2018-12-13T08:00:50.252Z,3.17
2018-12-13T08:01:50.377Z,3.29
2018-12-13T08:02:50.504Z,3.08
2018-12-13T08:03:50.645Z,3.12
2018-12-13T08:04:50.768Z,3.00
2018-12-13T08:05:50.900Z,3.09
2018-12-13T08:06:51.028Z,3.18
2018-12-13T08:07:51.156Z,3.17
2018-12-13T08:08:51.313Z,3.12
2018-12-13T08:09:51.436Z,3.12
2018-12-13T08:10:51.574Z,3.18
2018-12-13T08:11:52.295Z,3.17
2018-12-13T08:12:51.815Z,3.20
2018-12-13T08:13:51.948Z,3.35
2018-12-13T08:14:52.071Z,3.37
2018-12-13T08:15:52.208Z,3.29
2018-12-13T08:16:52.337Z,3.33
2018-12-13T08:17:52.463Z,3.41
2018-12-13T08:18:52.593Z,3.42
2018-12-13T08:19:52.722Z,3.41
2018-12-13T08:20:52.843Z,3.30
2018-12-13T08:21:52.973Z,3.32
2018-12-13T08:22:53.100Z,3.30
2018-12-13T08:23:53.231Z,3.26
2018-12-13T08:24:53.357Z,3.23
2018-12-13T08:25:53.484Z,3.23
2018-12-13T08:26:53.612Z,3.15
2018-12-13T08:27:53.745Z,3.20
2018-12-13T08:28:53.884Z,3.22
2018-12-13T08:29:54.012Z,3.32
2018-12-13T08:30:54.136Z,3.35
2018-12-13T08:31:54.262Z,3.41
2018-12-13T08:32:54.394Z,3.41
2018-12-13T08:33:54.523Z,3.51
2018-12-13T08:34:54.652Z,3.54
2018-12-13T08:35:54.773Z,3.49
2018-12-13T08:36:54.907Z,3.51
2018-12-13T08:37:55.030Z,3.45
2018-12-13T08:38:55.166Z,3.60
2018-12-13T08:39:55.293Z,3.62
2018-12-13T08:40:55.423Z,3.67
2018-12-13T08:41:55.546Z,3.72
2018-12-13T08:42:55.678Z,3.69
2018-12-13T08:43:55.803Z,3.73
2018-12-13T08:44:55.929Z,3.67
2018-12-13T08:45:56.057Z,3.69
2018-12-13T08:46:56.183Z,3.64
2018-12-13T08:47:56.314Z,3.69
2018-12-13T08:48:56.444Z,3.78
2018-12-13T08:49:56.576Z,3.84
2018-12-13T08:50:56.703Z,3.81
2018-12-13T08:51:56.835Z,3.91
2018-12-13T08:52:56.994Z,3.92
2018-12-13T08:53:57.085Z,3.92
2018-12-13T08:54:57.209Z,3.91
2018-12-13T08:55:57.335Z,4.00
2018-12-13T08:56:57.474Z,3.99
2018-12-13T08:57:57.605Z,4.13
2018-12-13T08:58:57.734Z,4.05
2018-12-13T08:59:57.861Z,4.02
2018-12-13T09:00:57.987Z,4.05
2018-12-13T09:01:58.118Z,4.05
2018-12-13T09:02:58.247Z,4.06
2018-12-13T09:03:58.379Z,4.03
2018-12-13T09:04:58.507Z,4.06
2018-12-13T09:05:58.638Z,4.23
2018-12-13T09:06:58.764Z,4.13
2018-12-13T09:07:58.899Z,4.16
2018-12-13T09:08:59.028Z,4.18
2018-12-13T09:09:59.157Z,4.34
2018-12-13T09:10:59.286Z,4.35
2018-12-13T09:11:59.411Z,4.39
2018-12-13T09:12:59.542Z,4.45
2018-12-13T09:14:00.871Z,4.54
2018-12-13T09:14:59.796Z,4.54
2018-12-13T09:15:59.931Z,4.42
2018-12-13T09:17:00.061Z,4.56
2018-12-13T09:18:00.191Z,4.54
2018-12-13T09:19:00.321Z,4.67
2018-12-13T09:20:00.449Z,4.60
2018-12-13T09:21:00.579Z,4.69
2018-12-13T09:22:00.706Z,4.66
2018-12-13T09:23:00.841Z,4.59
2018-12-13T09:24:00.971Z,4.64
2018-12-13T09:25:01.095Z,4.56
2018-12-13T09:26:01.280Z,4.57
2018-12-13T09:28:33.785Z,4.64
2018-12-13T09:29:33.929Z,4.77
2018-12-13T09:30:34.071Z,4.60
2018-12-13T09:31:34.205Z,4.60
2018-12-13T09:32:34.331Z,4.72
2018-12-13T09:33:34.462Z,4.71
2018-12-13T09:34:34.599Z,4.86
2018-12-13T09:35:34.728Z,4.74
2018-12-13T09:36:34.866Z,4.82
2018-12-13T09:37:34.992Z,4.63
2018-12-13T09:38:39.845Z,4.64
2018-12-13T09:39:35.248Z,4.71
2018-12-13T09:40:35.384Z,4.69
2018-12-13T09:41:35.519Z,4.91
2018-12-13T09:42:35.647Z,4.79
2018-12-13T09:43:35.777Z,4.93
2018-12-13T09:44:35.913Z,4.72
2018-12-13T09:45:36.042Z,4.75
2018-12-13T09:46:36.175Z,4.71
2018-12-13T09:47:36.309Z,4.75
2018-12-13T09:48:36.438Z,4.64
2018-12-13T09:49:36.563Z,4.71
2018-12-13T09:50:36.692Z,4.54
2018-12-13T09:51:36.827Z,4.60
2018-12-13T09:52:36.973Z,4.60
2018-12-13T09:53:37.110Z,4.60
2018-12-13T09:54:37.242Z,4.60
2018-12-13T09:55:37.361Z,4.59
2018-12-13T09:58:09.827Z,4.64
2018-12-13T09:59:09.956Z,4.74
2018-12-13T10:00:10.082Z,4.74
2018-12-13T10:01:10.216Z,4.88
2018-12-13T10:02:10.349Z,4.85
2018-12-13T10:03:10.477Z,4.89
2018-12-13T10:04:10.603Z,4.93
2018-12-13T10:05:10.722Z,4.98
2018-12-13T10:06:10.850Z,4.91
2018-12-13T10:07:11.040Z,4.89
2018-12-13T10:08:11.035Z,4.91
2018-12-13T10:11:23.114Z,4.98
2018-12-13T10:12:19.742Z,5.03
2018-12-13T10:13:19.879Z,5.03
2018-12-13T10:14:20.014Z,5.11
2018-12-13T10:15:20.162Z,5.11
2018-12-13T10:16:20.288Z,5.09
2018-12-13T10:17:20.420Z,5.14
2018-12-13T10:18:20.545Z,5.21
2018-12-13T10:19:20.683Z,5.36
2018-12-13T10:20:20.805Z,5.43
2018-12-13T10:21:20.942Z,5.69
2018-12-13T10:22:21.071Z,5.82
2018-12-13T10:23:21.210Z,5.94
2018-12-13T10:24:21.330Z,6.08
2018-12-13T10:25:21.476Z,6.19
2018-12-13T10:26:21.604Z,6.19
2018-12-13T10:27:21.746Z,6.12
2018-12-13T10:28:21.864Z,6.18
2018-12-13T10:29:21.995Z,6.11
2018-12-13T10:30:22.237Z,6.11
2018-12-13T10:31:22.244Z,6.30
2018-12-13T10:32:22.376Z,6.31
2018-12-13T10:33:22.519Z,6.21
2018-12-13T10:34:22.621Z,6.31
2018-12-13T10:35:22.745Z,6.38
2018-12-13T10:36:22.872Z,6.43
2018-12-13T10:37:23.018Z,6.50
2018-12-13T10:38:23.159Z,6.49
2018-12-13T10:39:23.285Z,6.42
2018-12-13T10:40:23.441Z,6.30
2018-12-13T10:41:23.641Z,6.31
2018-12-13T10:42:23.649Z,6.55
2018-12-13T10:43:23.777Z,6.32
2018-12-13T10:44:23.937Z,6.42
2018-12-13T10:45:24.045Z,6.37
2018-12-13T10:46:24.173Z,6.43
2018-12-13T10:47:24.301Z,6.35
2018-12-13T10:48:24.484Z,6.35
2018-12-13T10:49:24.625Z,6.31
2018-12-13T10:50:24.759Z,6.15
2018-12-13T10:51:24.891Z,6.16
2018-12-13T10:52:25.063Z,6.34
2018-12-13T10:53:25.261Z,6.45
2018-12-13T10:54:25.269Z,6.55
2018-12-13T10:55:25.407Z,6.49
2018-12-13T10:56:25.539Z,6.63
2018-12-13T10:57:25.663Z,6.50
2018-12-13T10:58:25.794Z,6.55
2018-12-13T10:59:25.928Z,6.64
2018-12-13T11:00:26.097Z,6.75
2018-12-13T11:01:26.190Z,6.97
2018-12-13T11:02:26.318Z,7.06
2018-12-13T11:03:26.446Z,7.10
2018-12-13T11:04:26.597Z,6.82
2018-12-13T11:05:26.718Z,6.61
2018-12-13T11:06:26.848Z,6.61
2018-12-13T11:07:26.997Z,6.75
2018-12-13T11:08:27.120Z,6.82
2018-12-13T11:09:27.246Z,6.78
2018-12-13T11:10:27.394Z,6.93
2018-12-13T11:11:27.533Z,7.19
2018-12-13T11:12:27.742Z,7.33
2018-12-13T11:13:28.461Z,7.62
2018-12-13T11:14:27.890Z,7.50
2018-12-13T11:15:28.011Z,7.46
2018-12-13T11:16:28.151Z,7.62
2018-12-13T11:17:28.312Z,7.78
2018-12-13T11:18:28.443Z,7.47
2018-12-13T11:19:28.570Z,7.39
2018-12-13T11:20:28.705Z,7.37
2018-12-13T11:21:28.844Z,7.26
2018-12-13T11:22:28.986Z,7.21
2018-12-13T11:23:29.117Z,7.22
2018-12-13T11:24:29.254Z,7.43
2018-12-13T11:25:29.407Z,7.26
2018-12-13T11:26:29.524Z,7.44
2018-12-13T11:27:29.700Z,7.36
2018-12-13T11:28:29.789Z,7.33
2018-12-13T11:29:29.929Z,7.55
2018-12-13T11:30:30.060Z,7.77
2018-12-13T11:31:30.200Z,7.83
2018-12-13T11:32:30.326Z,7.94
2018-12-13T11:33:30.467Z,8.02
2018-12-13T11:34:30.605Z,8.09
2018-12-13T11:35:30.754Z,7.95
2018-12-13T11:36:30.865Z,7.91
2018-12-13T11:37:30.999Z,8.02
2018-12-13T11:38:31.140Z,7.81
2018-12-13T11:39:31.312Z,7.69
2018-12-13T11:40:31.433Z,7.54
2018-12-13T11:41:31.566Z,7.26
2018-12-13T11:42:31.801Z,7.18
2018-12-13T11:43:31.820Z,7.42
2018-12-13T11:44:31.944Z,7.43
2018-12-13T11:45:32.079Z,7.11
2018-12-13T11:46:32.207Z,7.01
2018-12-13T11:47:32.357Z,6.86
2018-12-13T11:48:32.485Z,6.70
2018-12-13T11:49:32.619Z,6.74
2018-12-13T11:50:32.758Z,6.70
2018-12-13T11:51:32.909Z,6.68
2018-12-13T11:52:33.014Z,6.61
2018-12-13T11:53:33.150Z,6.65
2018-12-13T11:54:33.288Z,6.56
2018-12-13T11:55:33.437Z,6.73
2018-12-13T11:56:33.557Z,6.70
2018-12-13T11:57:33.704Z,6.81
2018-12-13T11:58:33.838Z,6.91
2018-12-13T11:59:34.010Z,7.07
2018-12-13T12:00:34.147Z,6.93
2018-12-13T12:01:34.281Z,7.25
2018-12-13T12:02:34.413Z,7.00
2018-12-13T12:03:34.577Z,6.99
2018-12-13T12:04:34.747Z,6.92
2018-12-13T12:05:34.881Z,6.89
2018-12-13T12:06:35.017Z,6.64
2018-12-13T12:07:35.195Z,6.50
2018-12-13T12:08:35.322Z,6.79
2018-12-13T12:09:35.451Z,6.70
2018-12-13T12:10:35.584Z,7.06
2018-12-13T12:11:35.738Z,7.13
2018-12-13T12:12:35.934Z,7.10
2018-12-13T12:13:35.944Z,6.74
2018-12-13T12:14:36.087Z,6.61
2018-12-13T12:15:36.224Z,6.42
2018-12-13T12:16:36.359Z,6.56
2018-12-13T12:17:36.519Z,6.70
2018-12-13T12:18:36.615Z,6.78
2018-12-13T12:19:36.820Z,6.93
2018-12-13T12:20:36.871Z,7.16
2018-12-13T12:21:36.996Z,7.47
2018-12-13T12:22:37.217Z,7.86
2018-12-13T12:23:37.285Z,7.95
2018-12-13T12:24:37.500Z,7.61
2018-12-13T12:25:37.550Z,7.57
2018-12-13T12:26:37.697Z,7.78
2018-12-13T12:27:37.823Z,7.78
2018-12-13T12:28:37.967Z,7.64
2018-12-13T12:29:38.094Z,7.15
2018-12-13T12:30:38.233Z,6.93
2018-12-13T12:31:38.384Z,6.86
2018-12-13T12:32:38.515Z,6.96
2018-12-13T12:33:38.654Z,6.93
2018-12-13T12:34:38.792Z,6.78
2018-12-13T12:35:38.960Z,6.79
2018-12-13T12:36:39.082Z,6.74
2018-12-13T12:37:39.215Z,6.74
2018-12-13T12:38:39.349Z,6.34
2018-12-13T12:39:39.505Z,6.42
2018-12-13T12:40:39.634Z,6.64
2018-12-13T12:41:39.776Z,6.63
2018-12-13T12:42:39.910Z,6.89
2018-12-13T12:43:40.073Z,7.28
2018-12-13T12:44:40.195Z,7.25
2018-12-13T12:45:40.329Z,6.88
2018-12-13T12:46:40.462Z,6.73
2018-12-13T12:47:40.635Z,6.89
2018-12-13T12:48:40.737Z,6.83
2018-12-13T12:49:40.870Z,6.89
2018-12-13T12:50:41.002Z,6.85
2018-12-13T12:51:41.147Z,6.75
2018-12-13T12:52:41.271Z,6.74
2018-12-13T12:53:41.412Z,6.49
2018-12-13T12:54:41.544Z,6.46
2018-12-13T12:55:41.684Z,6.38
2018-12-13T12:56:41.854Z,6.61
2018-12-13T12:57:41.995Z,6.63
2018-12-13T12:58:42.127Z,6.79
2018-12-13T12:59:42.254Z,7.15
2018-12-13T13:00:42.402Z,7.44
2018-12-13T13:01:42.540Z,7.74
2018-12-13T13:02:42.668Z,7.77
2018-12-13T13:03:42.804Z,7.78
2018-12-13T13:04:42.937Z,7.91
2018-12-13T13:05:43.066Z,8.26
2018-12-13T13:06:43.203Z,8.01
2018-12-13T13:07:43.342Z,7.83
2018-12-13T13:08:43.469Z,7.92
2018-12-13T13:09:43.612Z,7.78
2018-12-13T13:10:43.743Z,7.87
2018-12-13T13:11:43.880Z,7.69
2018-12-13T13:12:44.025Z,7.60
2018-12-13T13:13:44.156Z,7.61
2018-12-13T13:14:44.283Z,7.78
2018-12-13T13:15:44.414Z,7.86
2018-12-13T13:16:44.549Z,7.83
2018-12-13T13:17:44.681Z,7.99
2018-12-13T13:18:44.810Z,7.95
2018-12-13T13:19:44.946Z,7.91
2018-12-13T13:20:45.196Z,7.78
2018-12-13T13:21:45.219Z,7.88
2018-12-13T13:22:45.346Z,8.02
2018-12-13T13:23:45.507Z,8.28
2018-12-13T13:24:45.698Z,8.13
2018-12-13T13:25:45.841Z,7.98
2018-12-13T13:26:45.974Z,7.78
2018-12-13T13:27:46.106Z,7.74
2018-12-13T13:28:46.240Z,7.78
2018-12-13T13:29:46.373Z,7.83
2018-12-13T13:30:46.510Z,7.83
2018-12-13T13:31:46.651Z,7.86